sensor_id;sensor_type;location;lat;lon;timestamp;pressure;altitude;pressure_sealevel;temperature;humidity
54194;BME280;40102;50.906;6.972;2023-09-18T00:00:44;100020.91;;;21.83;84.37
54194;BME280;40102;50.906;6.972;2023-09-18T00:03:10;100020.38;;;21.87;84.44
54194;BME280;40102;50.906;6.972;2023-09-18T00:05:35;100006.28;;;21.84;83.89
54194;BME280;40102;50.906;6.972;2023-09-18T00:08:00;100010.19;;;21.81;84.09
54194;BME280;40102;50.906;6.972;2023-09-18T00:10:27;100014.78;;;21.89;83.78
54194;BME280;40102;50.906;6.972;2023-09-18T00:12:54;100017.16;;;21.84;84.01
54194;BME280;40102;50.906;6.972;2023-09-18T00:15:19;100000.56;;;21.62;84.13
54194;BME280;40102;50.906;6.972;2023-09-18T00:17:45;100001.59;;;21.53;84.89
54194;BME280;40102;50.906;6.972;2023-09-18T00:20:10;100009.09;;;21.51;84.89
54194;BME280;40102;50.906;6.972;2023-09-18T00:22:38;99989.38;;;21.41;85.43
54194;BME280;40102;50.906;6.972;2023-09-18T00:25:04;99980.53;;;21.39;85.87
54194;BME280;40102;50.906;6.972;2023-09-18T00:27:29;99979.66;;;21.47;85.46
54194;BME280;40102;50.906;6.972;2023-09-18T00:29:55;99978.13;;;21.52;85.32
54194;BME280;40102;50.906;6.972;2023-09-18T00:32:20;99975.22;;;21.62;84.79
54194;BME280;40102;50.906;6.972;2023-09-18T00:34:46;99966.38;;;21.60;84.09
54194;BME280;40102;50.906;6.972;2023-09-18T00:37:11;99968.06;;;21.69;84.01
54194;BME280;40102;50.906;6.972;2023-09-18T00:39:38;99964.47;;;21.69;83.40
54194;BME280;40102;50.906;6.972;2023-09-18T00:42:03;99970.41;;;21.80;83.82
54194;BME280;40102;50.906;6.972;2023-09-18T00:44:28;99946.59;;;21.74;83.59
54194;BME280;40102;50.906;6.972;2023-09-18T00:46:55;99954.06;;;21.80;83.36
54194;BME280;40102;50.906;6.972;2023-09-18T00:49:22;99954.88;;;21.89;83.08
54194;BME280;40102;50.906;6.972;2023-09-18T00:51:47;99931.44;;;21.80;83.06
54194;BME280;40102;50.906;6.972;2023-09-18T00:54:16;99953.53;;;21.85;83.28
54194;BME280;40102;50.906;6.972;2023-09-18T00:56:44;99945.75;;;21.74;83.23
54194;BME280;40102;50.906;6.972;2023-09-18T00:59:10;99949.34;;;21.66;83.60
54194;BME280;40102;50.906;6.972;2023-09-18T01:01:40;99953.13;;;21.57;84.46
54194;BME280;40102;50.906;6.972;2023-09-18T01:04:07;99955.00;;;21.48;84.27
54194;BME280;40102;50.906;6.972;2023-09-18T01:06:32;99943.81;;;21.35;85.41
54194;BME280;40102;50.906;6.972;2023-09-18T01:08:58;99944.50;;;21.29;85.03
54194;BME280;40102;50.906;6.972;2023-09-18T01:11:36;99939.25;;;21.27;84.66
54194;BME280;40102;50.906;6.972;2023-09-18T01:14:19;99930.59;;;21.24;84.95
54194;BME280;40102;50.906;6.972;2023-09-18T01:16:51;99926.16;;;21.23;84.52
54194;BME280;40102;50.906;6.972;2023-09-18T01:19:55;99935.19;;;21.23;84.89
54194;BME280;40102;50.906;6.972;2023-09-18T01:22:19;99936.88;;;21.24;84.96
54194;BME280;40102;50.906;6.972;2023-09-18T01:24:46;99942.81;;;21.28;84.82
54194;BME280;40102;50.906;6.972;2023-09-18T01:27:16;99917.81;;;21.16;85.03
54194;BME280;40102;50.906;6.972;2023-09-18T01:29:42;99924.09;;;21.17;84.93
54194;BME280;40102;50.906;6.972;2023-09-18T01:32:08;99932.78;;;21.28;84.55
54194;BME280;40102;50.906;6.972;2023-09-18T01:34:39;99920.72;;;21.15;84.34
54194;BME280;40102;50.906;6.972;2023-09-18T01:37:07;99915.78;;;21.10;84.88
54194;BME280;40102;50.906;6.972;2023-09-18T01:39:34;99914.59;;;21.13;84.83
54194;BME280;40102;50.906;6.972;2023-09-18T01:42:02;99921.75;;;21.22;84.83
54194;BME280;40102;50.906;6.972;2023-09-18T01:44:28;99904.22;;;21.16;84.67
54194;BME280;40102;50.906;6.972;2023-09-18T01:46:56;99895.72;;;21.27;83.90
54194;BME280;40102;50.906;6.972;2023-09-18T01:49:27;99897.59;;;21.27;83.87
54194;BME280;40102;50.906;6.972;2023-09-18T01:51:52;99904.03;;;21.34;83.51
54194;BME280;40102;50.906;6.972;2023-09-18T01:54:18;99881.09;;;21.20;83.83
54194;BME280;40102;50.906;6.972;2023-09-18T01:56:43;99884.53;;;21.22;84.12
54194;BME280;40102;50.906;6.972;2023-09-18T01:59:08;99892.00;;;21.28;84.47
54194;BME280;40102;50.906;6.972;2023-09-18T02:01:34;99878.06;;;21.15;84.41
54194;BME280;40102;50.906;6.972;2023-09-18T02:04:00;99880.78;;;21.15;84.55
54194;BME280;40102;50.906;6.972;2023-09-18T02:06:25;99886.38;;;21.14;84.91
54194;BME280;40102;50.906;6.972;2023-09-18T02:08:50;99871.44;;;21.10;84.85
54194;BME280;40102;50.906;6.972;2023-09-18T02:11:16;99863.44;;;21.16;84.54
54194;BME280;40102;50.906;6.972;2023-09-18T02:13:41;99876.03;;;21.09;84.31
54194;BME280;40102;50.906;6.972;2023-09-18T02:16:07;99892.53;;;21.08;84.50
54194;BME280;40102;50.906;6.972;2023-09-18T02:18:32;99892.84;;;21.05;84.71
54194;BME280;40102;50.906;6.972;2023-09-18T02:20:58;99905.63;;;20.96;85.24
54194;BME280;40102;50.906;6.972;2023-09-18T02:23:23;99911.41;;;20.93;86.02
54194;BME280;40102;50.906;6.972;2023-09-18T02:25:58;99897.47;;;20.88;85.61
54194;BME280;40102;50.906;6.972;2023-09-18T02:28:24;99893.91;;;20.95;85.62
54194;BME280;40102;50.906;6.972;2023-09-18T02:30:49;99897.63;;;21.02;85.51
54194;BME280;40102;50.906;6.972;2023-09-18T02:33:15;99887.09;;;20.99;85.29
54194;BME280;40102;50.906;6.972;2023-09-18T02:35:41;99872.31;;;21.02;86.53
54194;BME280;40102;50.906;6.972;2023-09-18T02:38:08;99880.97;;;21.06;86.96
54194;BME280;40102;50.906;6.972;2023-09-18T02:40:33;99863.31;;;21.01;87.68
54194;BME280;40102;50.906;6.972;2023-09-18T02:42:58;99844.63;;;20.90;89.03
54194;BME280;40102;50.906;6.972;2023-09-18T02:45:24;99830.03;;;20.83;89.67
54194;BME280;40102;50.906;6.972;2023-09-18T02:47:49;99837.84;;;20.86;91.41
54194;BME280;40102;50.906;6.972;2023-09-18T02:50:14;99828.50;;;20.81;92.06
54194;BME280;40102;50.906;6.972;2023-09-18T02:52:40;99818.16;;;20.84;92.14
54194;BME280;40102;50.906;6.972;2023-09-18T02:55:05;99801.84;;;20.84;92.76
54194;BME280;40102;50.906;6.972;2023-09-18T02:57:31;99805.91;;;20.88;92.89
54194;BME280;40102;50.906;6.972;2023-09-18T02:59:56;99769.78;;;20.80;93.20
54194;BME280;40102;50.906;6.972;2023-09-18T03:02:22;99785.88;;;20.89;93.82
54194;BME280;40102;50.906;6.972;2023-09-18T03:04:47;99785.16;;;20.95;93.57
54194;BME280;40102;50.906;6.972;2023-09-18T03:07:13;99785.84;;;20.97;93.84
54194;BME280;40102;50.906;6.972;2023-09-18T03:09:39;99780.69;;;21.11;93.96
54194;BME280;40102;50.906;6.972;2023-09-18T03:12:04;99772.69;;;21.25;93.20
54194;BME280;40102;50.906;6.972;2023-09-18T03:14:30;99777.69;;;21.45;91.97
54194;BME280;40102;50.906;6.972;2023-09-18T03:16:55;99782.91;;;21.54;90.48
54194;BME280;40102;50.906;6.972;2023-09-18T03:19:20;99813.75;;;21.39;91.85
54194;BME280;40102;50.906;6.972;2023-09-18T03:21:47;99798.38;;;21.07;93.74
54194;BME280;40102;50.906;6.972;2023-09-18T03:24:12;99852.94;;;20.97;96.10
54194;BME280;40102;50.906;6.972;2023-09-18T03:26:38;99863.31;;;21.01;95.07
54194;BME280;40102;50.906;6.972;2023-09-18T03:29:03;99855.97;;;21.10;93.64
54194;BME280;40102;50.906;6.972;2023-09-18T03:31:29;99846.63;;;21.13;92.57
54194;BME280;40102;50.906;6.972;2023-09-18T03:33:55;99863.44;;;21.24;92.37
54194;BME280;40102;50.906;6.972;2023-09-18T03:36:23;99829.13;;;21.23;91.80
54194;BME280;40102;50.906;6.972;2023-09-18T03:38:49;99834.72;;;21.30;91.45
54194;BME280;40102;50.906;6.972;2023-09-18T03:41:14;99836.19;;;21.41;90.94
54194;BME280;40102;50.906;6.972;2023-09-18T03:43:40;99823.50;;;21.25;92.07
54194;BME280;40102;50.906;6.972;2023-09-18T03:46:06;99816.88;;;21.11;93.35
54194;BME280;40102;50.906;6.972;2023-09-18T03:48:32;99804.19;;;20.95;94.89
54194;BME280;40102;50.906;6.972;2023-09-18T03:51:03;99813.59;;;20.77;95.50
54194;BME280;40102;50.906;6.972;2023-09-18T03:53:32;99817.19;;;20.77;96.07
54194;BME280;40102;50.906;6.972;2023-09-18T03:55:58;99804.06;;;20.81;95.47
54194;BME280;40102;50.906;6.972;2023-09-18T03:58:24;99796.28;;;20.78;94.25
54194;BME280;40102;50.906;6.972;2023-09-18T04:00:49;99789.31;;;20.75;94.21
54194;BME280;40102;50.906;6.972;2023-09-18T04:03:15;99790.00;;;20.77;94.22
54194;BME280;40102;50.906;6.972;2023-09-18T04:05:40;99796.81;;;20.73;94.62
54194;BME280;40102;50.906;6.972;2023-09-18T04:08:05;99803.75;;;20.76;93.54
54194;BME280;40102;50.906;6.972;2023-09-18T04:10:31;99798.81;;;20.79;93.28
54194;BME280;40102;50.906;6.972;2023-09-18T04:12:56;99805.72;;;20.90;93.08
54194;BME280;40102;50.906;6.972;2023-09-18T04:15:22;99781.44;;;20.88;93.16
54194;BME280;40102;50.906;6.972;2023-09-18T04:17:48;99789.78;;;20.87;92.78
54194;BME280;40102;50.906;6.972;2023-09-18T04:20:14;99775.75;;;20.75;94.05
54194;BME280;40102;50.906;6.972;2023-09-18T04:22:43;99780.31;;;20.75;94.60
54194;BME280;40102;50.906;6.972;2023-09-18T04:25:09;99798.34;;;20.67;95.23
54194;BME280;40102;50.906;6.972;2023-09-18T04:27:34;99795.13;;;20.56;96.83
54194;BME280;40102;50.906;6.972;2023-09-18T04:30:00;99793.63;;;20.45;97.15
54194;BME280;40102;50.906;6.972;2023-09-18T04:32:27;99789.00;;;20.37;97.45
54194;BME280;40102;50.906;6.972;2023-09-18T04:34:52;99783.91;;;20.34;98.19
54194;BME280;40102;50.906;6.972;2023-09-18T04:37:18;99783.06;;;20.34;98.35
54194;BME280;40102;50.906;6.972;2023-09-18T04:39:43;99773.56;;;20.30;98.30
54194;BME280;40102;50.906;6.972;2023-09-18T04:42:10;99775.44;;;20.37;98.42
54194;BME280;40102;50.906;6.972;2023-09-18T04:44:35;99745.06;;;20.26;98.65
54194;BME280;40102;50.906;6.972;2023-09-18T04:47:00;99779.34;;;20.35;99.10
54194;BME280;40102;50.906;6.972;2023-09-18T04:49:27;99769.81;;;20.31;98.65
54194;BME280;40102;50.906;6.972;2023-09-18T04:51:53;99758.97;;;20.31;97.79
54194;BME280;40102;50.906;6.972;2023-09-18T04:54:19;99765.59;;;20.28;98.53
54194;BME280;40102;50.906;6.972;2023-09-18T04:56:44;99786.63;;;20.26;98.12
54194;BME280;40102;50.906;6.972;2023-09-18T04:59:10;99792.75;;;20.36;97.36
54194;BME280;40102;50.906;6.972;2023-09-18T05:01:36;99779.84;;;20.30;96.92
54194;BME280;40102;50.906;6.972;2023-09-18T05:04:01;99773.06;;;20.34;96.40
54194;BME280;40102;50.906;6.972;2023-09-18T05:06:26;99777.16;;;20.39;96.19
54194;BME280;40102;50.906;6.972;2023-09-18T05:08:52;99783.09;;;20.42;95.71
54194;BME280;40102;50.906;6.972;2023-09-18T05:11:18;99790.03;;;20.53;95.28
54194;BME280;40102;50.906;6.972;2023-09-18T05:13:44;99781.03;;;20.60;95.77
54194;BME280;40102;50.906;6.972;2023-09-18T05:16:09;99793.94;;;20.66;94.28
54194;BME280;40102;50.906;6.972;2023-09-18T05:18:34;99793.25;;;20.64;94.00
54194;BME280;40102;50.906;6.972;2023-09-18T05:21:00;99816.19;;;20.62;94.49
54194;BME280;40102;50.906;6.972;2023-09-18T05:23:27;99818.38;;;20.66;93.87
54194;BME280;40102;50.906;6.972;2023-09-18T05:25:52;99793.44;;;20.63;93.47
54194;BME280;40102;50.906;6.972;2023-09-18T05:28:18;99776.47;;;20.53;94.42
54194;BME280;40102;50.906;6.972;2023-09-18T05:30:43;99780.22;;;20.44;95.79
54194;BME280;40102;50.906;6.972;2023-09-18T05:33:09;99793.06;;;20.33;96.30
54194;BME280;40102;50.906;6.972;2023-09-18T05:35:35;99816.31;;;20.20;97.21
54194;BME280;40102;50.906;6.972;2023-09-18T05:38:04;99833.13;;;20.23;97.62
54194;BME280;40102;50.906;6.972;2023-09-18T05:40:30;99832.13;;;20.24;97.38
54194;BME280;40102;50.906;6.972;2023-09-18T05:42:56;99853.31;;;20.29;96.08
54194;BME280;40102;50.906;6.972;2023-09-18T05:45:27;99854.34;;;20.36;96.28
54194;BME280;40102;50.906;6.972;2023-09-18T05:47:54;99842.66;;;20.44;95.49
54194;BME280;40102;50.906;6.972;2023-09-18T05:50:19;99841.50;;;20.46;94.62
54194;BME280;40102;50.906;6.972;2023-09-18T05:52:47;99843.00;;;20.49;94.29
54194;BME280;40102;50.906;6.972;2023-09-18T05:55:16;99848.09;;;20.52;94.58
54194;BME280;40102;50.906;6.972;2023-09-18T05:57:42;99855.56;;;20.50;94.18
54194;BME280;40102;50.906;6.972;2023-09-18T06:00:08;99846.91;;;20.54;93.87
54194;BME280;40102;50.906;6.972;2023-09-18T06:02:38;99837.41;;;20.58;92.57
54194;BME280;40102;50.906;6.972;2023-09-18T06:05:04;99849.28;;;20.57;92.27
54194;BME280;40102;50.906;6.972;2023-09-18T06:07:30;99837.75;;;20.63;89.88
54194;BME280;40102;50.906;6.972;2023-09-18T06:09:57;99842.31;;;20.63;89.75
54194;BME280;40102;50.906;6.972;2023-09-18T06:12:22;99854.88;;;20.64;89.53
54194;BME280;40102;50.906;6.972;2023-09-18T06:14:49;99864.22;;;20.61;88.92
54194;BME280;40102;50.906;6.972;2023-09-18T06:17:14;99866.44;;;20.66;88.94
54194;BME280;40102;50.906;6.972;2023-09-18T06:19:44;99865.75;;;20.80;89.25
54194;BME280;40102;50.906;6.972;2023-09-18T06:22:10;99847.50;;;20.97;88.41
54194;BME280;40102;50.906;6.972;2023-09-18T06:24:36;99842.06;;;21.05;88.07
54194;BME280;40102;50.906;6.972;2023-09-18T06:27:02;99827.44;;;21.06;87.84
54194;BME280;40102;50.906;6.972;2023-09-18T06:29:32;99831.03;;;20.98;86.57
54194;BME280;40102;50.906;6.972;2023-09-18T06:31:57;99850.41;;;20.95;87.02
54194;BME280;40102;50.906;6.972;2023-09-18T06:34:22;99846.16;;;20.93;86.08
54194;BME280;40102;50.906;6.972;2023-09-18T06:36:48;99845.31;;;20.92;86.15
54194;BME280;40102;50.906;6.972;2023-09-18T06:39:14;99853.13;;;20.87;86.15
54194;BME280;40102;50.906;6.972;2023-09-18T06:41:40;99843.28;;;20.86;85.68
54194;BME280;40102;50.906;6.972;2023-09-18T06:44:05;99838.50;;;20.96;84.89
54194;BME280;40102;50.906;6.972;2023-09-18T06:46:31;99828.81;;;21.02;83.96
54194;BME280;40102;50.906;6.972;2023-09-18T06:48:56;99822.53;;;21.01;83.25
54194;BME280;40102;50.906;6.972;2023-09-18T06:51:23;99834.75;;;21.06;83.53
54194;BME280;40102;50.906;6.972;2023-09-18T06:53:48;99845.97;;;21.02;83.46
54194;BME280;40102;50.906;6.972;2023-09-18T06:56:14;99857.00;;;21.01;84.27
54194;BME280;40102;50.906;6.972;2023-09-18T06:58:39;99845.47;;;20.99;83.81
54194;BME280;40102;50.906;6.972;2023-09-18T07:01:04;99866.69;;;21.03;83.11
54194;BME280;40102;50.906;6.972;2023-09-18T07:03:32;99853.63;;;20.99;83.65
54194;BME280;40102;50.906;6.972;2023-09-18T07:06:00;99842.56;;;21.00;83.12
54194;BME280;40102;50.906;6.972;2023-09-18T07:08:25;99848.50;;;21.04;82.28
54194;BME280;40102;50.906;6.972;2023-09-18T07:10:51;99848.50;;;21.04;82.32
54194;BME280;40102;50.906;6.972;2023-09-18T07:13:16;99857.50;;;21.13;82.09
54194;BME280;40102;50.906;6.972;2023-09-18T07:15:42;99867.38;;;21.22;81.59
54194;BME280;40102;50.906;6.972;2023-09-18T07:18:07;99882.13;;;21.19;80.96
54194;BME280;40102;50.906;6.972;2023-09-18T07:20:34;99885.03;;;21.26;81.82
54194;BME280;40102;50.906;6.972;2023-09-18T07:23:01;99891.28;;;21.34;80.62
54194;BME280;40102;50.906;6.972;2023-09-18T07:25:26;99891.28;;;21.34;80.21
54194;BME280;40102;50.906;6.972;2023-09-18T07:27:51;99900.31;;;21.35;79.85
54194;BME280;40102;50.906;6.972;2023-09-18T07:30:17;99897.22;;;21.38;79.56
54194;BME280;40102;50.906;6.972;2023-09-18T07:32:45;99893.50;;;21.39;80.06
54194;BME280;40102;50.906;6.972;2023-09-18T07:35:11;99899.78;;;21.40;80.12
54194;BME280;40102;50.906;6.972;2023-09-18T07:37:38;99915.41;;;21.46;79.85
54194;BME280;40102;50.906;6.972;2023-09-18T07:40:05;99922.00;;;21.51;79.25
54194;BME280;40102;50.906;6.972;2023-09-18T07:42:35;99932.19;;;21.57;79.02
54194;BME280;40102;50.906;6.972;2023-09-18T07:45:01;99941.56;;;21.55;79.33
54194;BME280;40102;50.906;6.972;2023-09-18T07:47:26;99931.69;;;21.54;79.20
54194;BME280;40102;50.906;6.972;2023-09-18T07:49:52;99928.97;;;21.62;78.71
54194;BME280;40102;50.906;6.972;2023-09-18T07:52:19;99932.69;;;21.61;78.91
54194;BME280;40102;50.906;6.972;2023-09-18T07:54:44;99928.97;;;21.54;77.36
54194;BME280;40102;50.906;6.972;2023-09-18T07:57:10;99921.69;;;21.46;77.66
54194;BME280;40102;50.906;6.972;2023-09-18T07:59:36;99924.59;;;21.45;77.29
54194;BME280;40102;50.906;6.972;2023-09-18T08:02:02;99923.91;;;21.43;77.15
54194;BME280;40102;50.906;6.972;2023-09-18T08:04:27;99932.22;;;21.49;77.39
54194;BME280;40102;50.906;6.972;2023-09-18T08:06:52;99947.84;;;21.55;76.98
54194;BME280;40102;50.906;6.972;2023-09-18T08:09:18;99951.09;;;21.51;77.08
54194;BME280;40102;50.906;6.972;2023-09-18T08:11:43;99968.59;;;21.56;77.02
54194;BME280;40102;50.906;6.972;2023-09-18T08:14:09;99959.25;;;21.51;76.89
54194;BME280;40102;50.906;6.972;2023-09-18T08:16:37;99962.13;;;21.57;77.24
54194;BME280;40102;50.906;6.972;2023-09-18T08:19:03;99944.78;;;21.58;77.18
54194;BME280;40102;50.906;6.972;2023-09-18T08:21:29;99942.72;;;21.60;76.77
54194;BME280;40102;50.906;6.972;2023-09-18T08:23:57;99951.22;;;21.65;76.28
54194;BME280;40102;50.906;6.972;2023-09-18T08:26:22;99940.53;;;21.56;76.71
54194;BME280;40102;50.906;6.972;2023-09-18T08:28:47;99954.31;;;21.54;76.64
54194;BME280;40102;50.906;6.972;2023-09-18T08:31:13;99959.94;;;21.53;77.36
54194;BME280;40102;50.906;6.972;2023-09-18T08:33:41;99954.31;;;21.54;77.08
54194;BME280;40102;50.906;6.972;2023-09-18T08:36:07;99954.00;;;21.49;77.05
54194;BME280;40102;50.906;6.972;2023-09-18T08:38:32;99962.97;;;21.58;76.29
54194;BME280;40102;50.906;6.972;2023-09-18T08:40:58;99965.53;;;21.59;76.68
54194;BME280;40102;50.906;6.972;2023-09-18T08:43:24;99945.84;;;21.49;76.47
54194;BME280;40102;50.906;6.972;2023-09-18T08:45:53;99961.81;;;21.52;76.40
54194;BME280;40102;50.906;6.972;2023-09-18T08:48:19;99977.28;;;21.52;76.38
54194;BME280;40102;50.906;6.972;2023-09-18T08:50:45;99974.91;;;21.49;76.25
54194;BME280;40102;50.906;6.972;2023-09-18T08:53:12;99966.91;;;21.47;76.41
54194;BME280;40102;50.906;6.972;2023-09-18T08:55:37;99959.59;;;21.56;76.51
54194;BME280;40102;50.906;6.972;2023-09-18T08:58:03;99968.41;;;21.66;75.98
54194;BME280;40102;50.906;6.972;2023-09-18T09:00:29;99956.31;;;21.69;75.79
54194;BME280;40102;50.906;6.972;2023-09-18T09:02:55;99960.75;;;21.61;74.84
54194;BME280;40102;50.906;6.972;2023-09-18T09:05:21;99961.44;;;21.63;75.03
54194;BME280;40102;50.906;6.972;2023-09-18T09:07:47;99961.09;;;21.66;74.84
54194;BME280;40102;50.906;6.972;2023-09-18T09:10:13;99965.81;;;21.73;74.95
54194;BME280;40102;50.906;6.972;2023-09-18T09:12:56;99959.03;;;21.69;74.91
54194;BME280;40102;50.906;6.972;2023-09-18T09:15:25;99969.25;;;21.66;73.63
54194;BME280;40102;50.906;6.972;2023-09-18T09:17:52;99978.44;;;21.65;74.34
54194;BME280;40102;50.906;6.972;2023-09-18T09:20:18;99979.63;;;21.63;74.29
54194;BME280;40102;50.906;6.972;2023-09-18T09:22:46;99990.53;;;21.63;74.26
54194;BME280;40102;50.906;6.972;2023-09-18T09:25:21;99991.53;;;21.62;73.88
54194;BME280;40102;50.906;6.972;2023-09-18T09:27:55;99990.00;;;21.59;74.10
54194;BME280;40102;50.906;6.972;2023-09-18T09:30:22;99976.59;;;21.58;74.01
54194;BME280;40102;50.906;6.972;2023-09-18T09:32:52;99967.56;;;21.57;74.38
54194;BME280;40102;50.906;6.972;2023-09-18T09:35:30;99964.50;;;21.60;74.12
54194;BME280;40102;50.906;6.972;2023-09-18T09:38:07;99970.28;;;21.57;73.72
54194;BME280;40102;50.906;6.972;2023-09-18T09:40:33;99968.25;;;21.59;73.30
54194;BME280;40102;50.906;6.972;2023-09-18T09:43:00;99985.56;;;21.66;73.63
54194;BME280;40102;50.906;6.972;2023-09-18T09:45:31;99968.41;;;21.66;74.37
54194;BME280;40102;50.906;6.972;2023-09-18T09:48:05;99960.91;;;21.68;73.55
54194;BME280;40102;50.906;6.972;2023-09-18T09:50:31;99968.38;;;21.74;73.29
54194;BME280;40102;50.906;6.972;2023-09-18T09:52:57;99951.72;;;21.69;73.65
54194;BME280;40102;50.906;6.972;2023-09-18T09:55:31;99966.66;;;21.81;72.91
54194;BME280;40102;50.906;6.972;2023-09-18T09:58:01;99956.13;;;21.78;72.80
54194;BME280;40102;50.906;6.972;2023-09-18T10:03:04;99948.78;;;21.79;72.74
54194;BME280;40102;50.906;6.972;2023-09-18T10:05:32;99951.16;;;21.82;72.89
54194;BME280;40102;50.906;6.972;2023-09-18T10:07:59;99932.47;;;21.79;72.85
54194;BME280;40102;50.906;6.972;2023-09-18T10:10:29;99938.72;;;21.87;72.93
54194;BME280;40102;50.906;6.972;2023-09-18T10:13:00;99938.88;;;21.94;73.01
54194;BME280;40102;50.906;6.972;2023-09-18T10:15:26;99945.16;;;21.94;72.61
54194;BME280;40102;50.906;6.972;2023-09-18T10:17:55;99951.44;;;21.95;72.23
54194;BME280;40102;50.906;6.972;2023-09-18T10:20:21;99955.19;;;21.94;72.49
54194;BME280;40102;50.906;6.972;2023-09-18T10:22:54;99965.72;;;21.97;72.02
54194;BME280;40102;50.906;6.972;2023-09-18T10:25:23;99970.81;;;22.00;71.93
54194;BME280;40102;50.906;6.972;2023-09-18T10:27:51;99967.06;;;22.01;71.84
54194;BME280;40102;50.906;6.972;2023-09-18T10:30:20;99967.78;;;22.03;71.17
54194;BME280;40102;50.906;6.972;2023-09-18T10:32:48;99971.53;;;22.02;70.69
54194;BME280;40102;50.906;6.972;2023-09-18T10:35:15;99966.91;;;22.11;70.82
54194;BME280;40102;50.906;6.972;2023-09-18T10:37:45;99970.78;;;22.16;71.32
54194;BME280;40102;50.906;6.972;2023-09-18T10:40:11;99981.31;;;22.19;70.53
54194;BME280;40102;50.906;6.972;2023-09-18T10:42:38;99986.22;;;22.24;69.91
54194;BME280;40102;50.906;6.972;2023-09-18T10:45:05;99976.19;;;22.24;69.72
54194;BME280;40102;50.906;6.972;2023-09-18T10:47:32;99976.38;;;22.23;68.76
54194;BME280;40102;50.906;6.972;2023-09-18T10:49:59;99969.72;;;22.25;68.63
54194;BME280;40102;50.906;6.972;2023-09-18T10:52:24;99989.44;;;22.27;68.03
54194;BME280;40102;50.906;6.972;2023-09-18T10:54:50;99973.97;;;22.28;68.45
54194;BME280;40102;50.906;6.972;2023-09-18T10:57:16;100001.16;;;22.36;67.82
54194;BME280;40102;50.906;6.972;2023-09-18T10:59:56;99974.22;;;22.41;67.44
54194;BME280;40102;50.906;6.972;2023-09-18T11:02:23;99982.56;;;22.40;65.69
54194;BME280;40102;50.906;6.972;2023-09-18T11:04:52;99967.56;;;22.44;66.13
54194;BME280;40102;50.906;6.972;2023-09-18T11:07:19;99982.16;;;22.51;65.71
54194;BME280;40102;50.906;6.972;2023-09-18T11:09:45;99964.13;;;22.50;65.17
54194;BME280;40102;50.906;6.972;2023-09-18T11:12:14;99960.31;;;22.59;63.40
54194;BME280;40102;50.906;6.972;2023-09-18T11:14:56;99940.38;;;22.58;63.27
54194;BME280;40102;50.906;6.972;2023-09-18T11:22:38;99953.59;;;22.70;64.14
54194;BME280;40102;50.906;6.972;2023-09-18T11:28:00;99975.31;;;22.86;62.48
54194;BME280;40102;50.906;6.972;2023-09-18T11:30:27;99973.53;;;22.93;61.67
54194;BME280;40102;50.906;6.972;2023-09-18T11:32:54;99980.81;;;23.01;61.40
54194;BME280;40102;50.906;6.972;2023-09-18T11:35:20;99973.19;;;22.96;60.48
54194;BME280;40102;50.906;6.972;2023-09-18T11:37:47;99961.06;;;22.99;60.32
54194;BME280;40102;50.906;6.972;2023-09-18T11:40:32;99979.03;;;23.08;60.49
54194;BME280;40102;50.906;6.972;2023-09-18T11:43:23;99972.56;;;23.09;60.18
54194;BME280;40102;50.906;6.972;2023-09-18T11:45:54;99953.94;;;23.12;60.66
54194;BME280;40102;50.906;6.972;2023-09-18T11:48:27;99937.75;;;23.11;61.40
54194;BME280;40102;50.906;6.972;2023-09-18T11:50:56;99936.44;;;23.07;60.47
54194;BME280;40102;50.906;6.972;2023-09-18T11:53:23;99954.13;;;23.11;60.16
54194;BME280;40102;50.906;6.972;2023-09-18T11:55:49;99931.72;;;23.01;60.43
54194;BME280;40102;50.906;6.972;2023-09-18T11:58:15;99942.56;;;23.09;60.77
54194;BME280;40102;50.906;6.972;2023-09-18T12:00:40;99944.84;;;23.20;60.93
54194;BME280;40102;50.906;6.972;2023-09-18T12:03:19;99932.44;;;23.32;59.83
54194;BME280;40102;50.906;6.972;2023-09-18T12:06:25;99923.69;;;23.51;57.87
54194;BME280;40102;50.906;6.972;2023-09-18T12:08:52;99927.22;;;23.60;56.27
54194;BME280;40102;50.906;6.972;2023-09-18T12:11:18;99938.59;;;23.64;56.32
54194;BME280;40102;50.906;6.972;2023-09-18T12:13:46;99930.69;;;23.69;56.21
54194;BME280;40102;50.906;6.972;2023-09-18T12:16:11;99921.66;;;23.83;54.95
54194;BME280;40102;50.906;6.972;2023-09-18T12:18:37;99922.97;;;23.87;55.16
54194;BME280;40102;50.906;6.972;2023-09-18T12:21:09;99917.84;;;23.99;54.06
54194;BME280;40102;50.906;6.972;2023-09-18T12:23:39;99935.63;;;24.09;54.17
54194;BME280;40102;50.906;6.972;2023-09-18T12:26:05;99908.03;;;24.04;53.09
54194;BME280;40102;50.906;6.972;2023-09-18T12:28:37;99923.00;;;24.08;53.82
54194;BME280;40102;50.906;6.972;2023-09-18T12:31:05;99903.66;;;24.25;52.98
54194;BME280;40102;50.906;6.972;2023-09-18T12:33:35;99886.06;;;24.27;53.05
54194;BME280;40102;50.906;6.972;2023-09-18T12:36:03;99907.88;;;24.63;51.85
54194;BME280;40102;50.906;6.972;2023-09-18T12:38:30;99913.28;;;24.57;52.34
54194;BME280;40102;50.906;6.972;2023-09-18T12:40:56;99901.38;;;24.43;52.28
54194;BME280;40102;50.906;6.972;2023-09-18T12:43:23;99902.78;;;24.39;52.53
54194;BME280;40102;50.906;6.972;2023-09-18T12:45:50;99893.56;;;24.40;52.88
54194;BME280;40102;50.906;6.972;2023-09-18T12:48:16;99904.81;;;24.51;52.12
54194;BME280;40102;50.906;6.972;2023-09-18T12:50:41;99906.84;;;24.64;53.20
54194;BME280;40102;50.906;6.972;2023-09-18T12:53:08;99902.78;;;24.81;51.88
54194;BME280;40102;50.906;6.972;2023-09-18T12:55:34;99895.19;;;24.98;51.39
54194;BME280;40102;50.906;6.972;2023-09-18T12:58:00;99885.41;;;24.89;51.79
54194;BME280;40102;50.906;6.972;2023-09-18T13:00:30;99904.34;;;24.91;50.98
54194;BME280;40102;50.906;6.972;2023-09-18T13:02:56;99904.69;;;24.81;50.87
54194;BME280;40102;50.906;6.972;2023-09-18T13:05:23;99900.78;;;24.69;51.83
54194;BME280;40102;50.906;6.972;2023-09-18T13:07:53;99898.38;;;24.80;50.86
54194;BME280;40102;50.906;6.972;2023-09-18T13:10:19;99899.91;;;24.90;50.69